createdAt,value
2023-03-31T00:01:13.991Z,94.01
2023-03-31T00:03:44.830Z,93.36
2023-03-31T00:06:18.919Z,93.67
2023-03-31T00:08:51.870Z,95.50
2023-03-31T00:11:22.753Z,96.62
2023-03-31T00:13:50.426Z,96.48
2023-03-31T00:16:18.162Z,96.41
2023-03-31T00:18:56.825Z,95.92
2023-03-31T00:25:39.174Z,95.01
2023-03-31T00:28:07.292Z,95.20
2023-03-31T00:30:43.626Z,96.89
2023-03-31T00:33:20.850Z,94.99
2023-03-31T00:36:00.579Z,95.69
2023-03-31T00:38:33.671Z,96.20
2023-03-31T00:41:13.308Z,98.17
2023-03-31T00:44:08.614Z,97.28
2023-03-31T00:46:55.306Z,95.62
2023-03-31T00:49:34.127Z,94.25
2023-03-31T00:52:11.610Z,94.52
2023-03-31T00:54:43.796Z,96.28
2023-03-31T00:57:14.754Z,98.52
2023-03-31T01:00:14.884Z,97.26
2023-03-31T01:03:13.127Z,95.96
2023-03-31T01:05:47.733Z,96.26
2023-03-31T01:08:20.328Z,96.72
2023-03-31T01:11:51.176Z,96.68
2023-03-31T01:14:26.257Z,95.43
2023-03-31T01:17:57.424Z,96.09
2023-03-31T01:20:36.684Z,97.71
2023-03-31T01:23:41.832Z,99.87
2023-03-31T01:26:30.713Z,100.00
2023-03-31T01:29:32.185Z,100.00
2023-03-31T01:32:24.378Z,98.35
2023-03-31T01:35:22.786Z,98.04
2023-03-31T01:38:06.062Z,97.59
2023-03-31T01:40:59.230Z,100.00
2023-03-31T01:43:36.819Z,100.00
2023-03-31T01:46:29.789Z,100.00
2023-03-31T01:49:38.688Z,100.00
2023-03-31T01:52:19.221Z,100.00
2023-03-31T01:55:02.359Z,100.00
2023-03-31T01:57:35.267Z,100.00
2023-03-31T02:00:15.511Z,98.79
2023-03-31T02:02:58.335Z,98.83
2023-03-31T02:05:35.581Z,98.11
2023-03-31T02:08:24.379Z,97.42
2023-03-31T02:10:53.897Z,98.07
2023-03-31T02:13:26.031Z,99.92
2023-03-31T02:16:00.114Z,99.65
2023-03-31T02:18:40.177Z,100.00
2023-03-31T02:21:36.799Z,100.00
2023-03-31T02:27:46.041Z,100.00
2023-03-31T02:30:18.318Z,100.00
2023-03-31T02:32:47.324Z,100.00
2023-03-31T02:35:19.376Z,100.00
2023-03-31T02:37:50.063Z,100.00
2023-03-31T02:40:27.780Z,100.00
2023-03-31T02:42:57.818Z,100.00
2023-03-31T02:45:42.348Z,100.00
2023-03-31T02:48:30.549Z,100.00
2023-03-31T02:51:14.498Z,100.00
2023-03-31T02:54:28.596Z,100.00
2023-03-31T02:57:29.513Z,100.00
2023-03-31T03:00:17.650Z,100.00
2023-03-31T03:02:59.765Z,100.00
2023-03-31T03:05:51.335Z,100.00
2023-03-31T03:09:00.404Z,100.00
2023-03-31T03:15:49.938Z,100.00
2023-03-31T03:18:20.678Z,100.00
2023-03-31T03:24:31.026Z,100.00
2023-03-31T03:26:58.882Z,100.00
2023-03-31T03:29:27.421Z,100.00
2023-03-31T03:31:55.242Z,99.99
2023-03-31T03:34:25.513Z,99.93
2023-03-31T03:36:55.867Z,99.17
2023-03-31T03:39:26.833Z,99.37
2023-03-31T03:41:54.895Z,98.46
2023-03-31T03:44:25.214Z,100.00
2023-03-31T03:46:57.198Z,100.00
2023-03-31T03:49:28.207Z,100.00
2023-03-31T03:51:56.043Z,100.00
2023-03-31T03:54:26.176Z,100.00
2023-03-31T03:56:53.932Z,100.00
2023-03-31T03:59:25.886Z,100.00
2023-03-31T04:02:42.100Z,100.00
2023-03-31T04:05:10.213Z,100.00
2023-03-31T04:07:38.145Z,99.84
2023-03-31T04:13:41.231Z,98.00
2023-03-31T04:16:09.557Z,98.30
2023-03-31T04:18:51.724Z,98.43
2023-03-31T04:21:27.864Z,97.94
2023-03-31T04:24:04.738Z,98.46
2023-03-31T04:26:44.735Z,97.71
2023-03-31T04:29:22.753Z,97.92
2023-03-31T04:32:21.837Z,97.91
2023-03-31T04:35:10.138Z,96.29
2023-03-31T04:37:40.291Z,97.76
2023-03-31T04:40:13.306Z,98.71
2023-03-31T04:42:44.532Z,99.33
2023-03-31T04:45:28.730Z,99.15
2023-03-31T04:48:01.419Z,100.00
2023-03-31T04:50:32.793Z,100.00
2023-03-31T04:53:00.893Z,99.94
2023-03-31T04:55:37.596Z,100.00
2023-03-31T04:58:07.858Z,99.10
2023-03-31T05:00:35.553Z,98.01
2023-03-31T05:03:03.512Z,98.19
2023-03-31T05:05:31.209Z,98.19
2023-03-31T05:08:00.863Z,98.54
2023-03-31T05:10:29.299Z,99.87
2023-03-31T05:12:58.137Z,99.30
2023-03-31T05:15:26.065Z,100.00
2023-03-31T05:17:55.268Z,99.82
2023-03-31T05:20:23.100Z,98.24
2023-03-31T05:22:51.193Z,98.05
2023-03-31T05:25:22.588Z,97.21
2023-03-31T05:27:51.199Z,100.00
2023-03-31T05:30:19.831Z,100.00
2023-03-31T05:32:48.376Z,99.36
2023-03-31T05:39:00.984Z,97.58
2023-03-31T05:41:28.860Z,97.99
2023-03-31T05:43:56.703Z,97.62
2023-03-31T05:46:26.858Z,97.72
2023-03-31T05:49:09.757Z,96.30
2023-03-31T05:51:42.361Z,97.44
2023-03-31T05:54:10.088Z,99.62
2023-03-31T05:56:37.634Z,98.80
2023-03-31T05:59:05.593Z,99.71
2023-03-31T06:01:59.690Z,100.00
2023-03-31T06:04:46.278Z,100.00
2023-03-31T06:07:16.891Z,100.00
2023-03-31T06:09:47.941Z,99.41
2023-03-31T06:12:32.509Z,98.65
2023-03-31T06:15:06.150Z,99.12
2023-03-31T06:20:57.041Z,98.77
2023-03-31T06:23:26.199Z,100.00
2023-03-31T06:25:54.346Z,100.00
2023-03-31T06:28:27.318Z,100.00
2023-03-31T06:31:01.603Z,99.71
2023-03-31T06:33:29.230Z,100.00
2023-03-31T06:35:57.923Z,100.00
2023-03-31T06:38:26.274Z,100.00
2023-03-31T06:41:13.615Z,100.00
2023-03-31T06:43:41.420Z,100.00
2023-03-31T06:46:10.054Z,99.31
2023-03-31T06:48:52.451Z,98.10
2023-03-31T06:51:20.592Z,97.15
2023-03-31T06:53:48.137Z,97.06
2023-03-31T06:56:16.278Z,98.58
2023-03-31T06:58:43.939Z,97.80
2023-03-31T07:01:11.969Z,97.13
2023-03-31T07:03:39.786Z,95.79
2023-03-31T07:06:07.588Z,96.54
2023-03-31T07:08:36.311Z,97.68
2023-03-31T07:11:04.340Z,99.27
2023-03-31T07:13:32.491Z,97.96
2023-03-31T07:16:00.312Z,95.84
2023-03-31T07:18:34.310Z,97.68
2023-03-31T07:21:05.792Z,95.62
2023-03-31T07:23:36.347Z,96.85
2023-03-31T07:26:07.912Z,96.37
2023-03-31T07:30:26.915Z,98.11
2023-03-31T07:32:24.165Z,94.88
2023-03-31T07:34:52.840Z,97.58
2023-03-31T07:37:20.534Z,99.95
2023-03-31T07:39:48.094Z,99.81
2023-03-31T07:42:16.115Z,96.75
2023-03-31T07:44:43.791Z,98.30
2023-03-31T07:47:11.402Z,100.00
2023-03-31T07:50:05.100Z,100.00
2023-03-31T07:52:32.652Z,98.53
2023-03-31T07:55:00.358Z,97.41
2023-03-31T07:57:46.368Z,96.77
2023-03-31T08:00:18.635Z,96.25
2023-03-31T08:02:47.633Z,93.98
2023-03-31T08:05:18.576Z,98.28
2023-03-31T08:07:53.435Z,95.21
2023-03-31T08:10:24.999Z,93.56
2023-03-31T08:12:53.934Z,92.94
2023-03-31T08:15:22.140Z,93.72
2023-03-31T08:17:52.152Z,95.15
2023-03-31T08:20:30.230Z,93.81
2023-03-31T08:22:57.982Z,92.81
2023-03-31T08:25:27.777Z,92.23
2023-03-31T08:28:02.363Z,90.28
2023-03-31T08:30:38.147Z,90.79
2023-03-31T08:33:14.498Z,92.35
2023-03-31T08:36:06.078Z,89.60
2023-03-31T08:40:25.271Z,94.18
2023-03-31T08:50:03.938Z,94.68
2023-03-31T09:01:05.249Z,87.63
2023-03-31T09:03:53.419Z,93.22
2023-03-31T09:06:43.659Z,100.00
2023-03-31T09:09:26.312Z,100.00
2023-03-31T09:11:56.916Z,100.00
2023-03-31T09:15:38.427Z,95.31
2023-03-31T09:18:32.545Z,92.46
2023-03-31T09:21:10.650Z,93.77
2023-03-31T09:23:59.989Z,94.44
2023-03-31T09:26:34.593Z,92.70
2023-03-31T09:29:35.447Z,93.70
2023-03-31T09:32:18.223Z,94.81
2023-03-31T09:34:50.542Z,94.93
2023-03-31T09:37:18.440Z,92.09
2023-03-31T09:39:46.220Z,93.40
2023-03-31T09:42:14.590Z,93.89
2023-03-31T09:44:47.486Z,93.58
2023-03-31T09:48:09.427Z,93.82
2023-03-31T09:50:45.130Z,91.73
2023-03-31T09:53:34.739Z,88.80
2023-03-31T09:56:05.495Z,92.36
2023-03-31T09:58:41.703Z,91.12
2023-03-31T10:01:12.089Z,88.35
2023-03-31T10:03:54.215Z,89.07
2023-03-31T10:06:23.949Z,90.41
2023-03-31T10:09:44.094Z,92.35
2023-03-31T10:12:23.014Z,97.14
2023-03-31T10:14:52.837Z,94.96
2023-03-31T10:17:27.803Z,91.33
2023-03-31T10:19:59.213Z,85.66
2023-03-31T10:22:30.680Z,89.22
2023-03-31T10:25:21.983Z,85.87
2023-03-31T10:27:55.983Z,82.04
2023-03-31T10:30:28.750Z,84.47
2023-03-31T10:32:56.995Z,81.19
2023-03-31T10:35:34.950Z,79.87
2023-03-31T10:38:06.699Z,78.41
2023-03-31T10:40:36.538Z,77.61
2023-03-31T10:43:20.498Z,77.79
2023-03-31T10:45:56.347Z,77.10
2023-03-31T10:48:23.989Z,82.56
2023-03-31T10:50:51.760Z,77.87
2023-03-31T10:53:20.109Z,75.82
2023-03-31T10:56:13.858Z,71.14
2023-03-31T10:58:52.088Z,73.06
2023-03-31T11:01:47.821Z,73.25
2023-03-31T11:04:44.145Z,77.39
2023-03-31T11:07:14.289Z,74.74
2023-03-31T11:09:55.813Z,78.91
2023-03-31T11:12:57.451Z,78.12
2023-03-31T11:15:42.647Z,73.63
2023-03-31T11:18:28.733Z,73.91
2023-03-31T11:21:02.204Z,70.58
2023-03-31T11:24:18.050Z,66.74
2023-03-31T11:31:04.725Z,69.38
2023-03-31T11:33:56.087Z,66.17
2023-03-31T11:36:44.993Z,67.94
2023-03-31T11:39:37.178Z,71.78
2023-03-31T11:45:38.994Z,71.03
2023-03-31T11:48:31.931Z,72.74
2023-03-31T11:55:26.300Z,69.20
2023-03-31T11:58:46.858Z,68.39
2023-03-31T12:01:35.948Z,67.46
2023-03-31T12:11:49.306Z,60.97
2023-03-31T12:23:07.760Z,57.04
2023-03-31T12:25:59.143Z,56.81
2023-03-31T12:29:16.931Z,61.52
2023-03-31T12:35:04.523Z,60.63
2023-03-31T12:42:16.193Z,63.18
2023-03-31T12:45:18.293Z,59.39
2023-03-31T12:48:05.698Z,59.88
2023-03-31T12:50:36.612Z,60.92
2023-03-31T12:57:45.723Z,62.03
2023-03-31T13:04:18.121Z,61.02
2023-03-31T13:06:57.197Z,61.30
2023-03-31T13:10:40.290Z,60.75
2023-03-31T13:13:16.333Z,61.66
2023-03-31T13:15:56.554Z,60.28
2023-03-31T13:21:56.361Z,63.23
2023-03-31T13:24:51.257Z,59.98
2023-03-31T13:32:00.499Z,59.90
2023-03-31T13:34:36.090Z,56.96
2023-03-31T13:37:19.879Z,57.03
2023-03-31T13:40:15.133Z,59.90
2023-03-31T13:43:17.623Z,62.05
2023-03-31T13:46:59.526Z,59.57
2023-03-31T13:49:48.371Z,60.46
2023-03-31T13:52:35.798Z,58.63
2023-03-31T13:55:46.801Z,59.90
2023-03-31T13:59:01.483Z,60.44
2023-03-31T14:01:49.068Z,61.71
2023-03-31T14:04:34.520Z,59.28
2023-03-31T14:07:18.271Z,58.60
2023-03-31T14:09:55.039Z,60.40
2023-03-31T14:16:28.474Z,62.40
2023-03-31T14:22:02.071Z,60.16
2023-03-31T14:24:37.268Z,59.94
2023-03-31T14:27:25.604Z,63.59
2023-03-31T14:29:59.964Z,63.18
2023-03-31T14:33:03.873Z,65.58
2023-03-31T14:35:38.958Z,68.45
2023-03-31T14:38:13.366Z,65.64
2023-03-31T14:40:58.484Z,64.18
2023-03-31T14:43:29.456Z,62.85
2023-03-31T14:46:10.047Z,64.70
2023-03-31T14:48:50.391Z,65.46
2023-03-31T14:51:30.684Z,65.20
2023-03-31T14:53:59.482Z,65.86
2023-03-31T14:56:36.316Z,66.32
2023-03-31T14:59:06.504Z,64.24
2023-03-31T15:01:37.805Z,63.33
2023-03-31T15:04:12.831Z,63.38
2023-03-31T15:06:48.065Z,64.54
2023-03-31T15:09:28.493Z,66.42
2023-03-31T15:12:13.733Z,66.50
2023-03-31T15:14:46.962Z,65.57
2023-03-31T15:17:38.053Z,63.87
2023-03-31T15:20:24.456Z,64.68
2023-03-31T15:22:52.537Z,63.92
2023-03-31T15:25:21.866Z,64.79
2023-03-31T15:27:56.828Z,64.29
2023-03-31T15:30:27.187Z,63.91
2023-03-31T15:33:01.510Z,65.75
2023-03-31T15:35:39.050Z,67.27
2023-03-31T15:38:06.892Z,65.28
2023-03-31T15:40:41.056Z,68.19
2023-03-31T15:43:25.015Z,70.00
2023-03-31T15:45:54.582Z,66.32
2023-03-31T15:48:28.763Z,69.28
2023-03-31T15:51:07.764Z,68.38
2023-03-31T15:53:38.625Z,66.79
2023-03-31T16:08:11.034Z,95.95
2023-03-31T16:10:41.103Z,94.92
2023-03-31T16:13:10.937Z,98.56
2023-03-31T16:15:47.113Z,99.23
2023-03-31T16:18:35.077Z,99.51
2023-03-31T16:21:05.810Z,94.96
2023-03-31T16:23:38.841Z,100.00
2023-03-31T16:26:16.420Z,100.00
2023-03-31T16:29:18.474Z,98.90
2023-03-31T16:32:13.255Z,98.43
2023-03-31T16:35:05.343Z,96.61
2023-03-31T16:37:33.711Z,98.61
2023-03-31T16:40:01.820Z,97.50
2023-03-31T16:42:29.415Z,99.79
2023-03-31T16:45:13.039Z,96.27
2023-03-31T16:49:17.840Z,99.70
2023-03-31T16:55:19.284Z,98.43
2023-03-31T16:58:16.380Z,100.00
2023-03-31T17:00:47.840Z,100.00
2023-03-31T17:03:59.212Z,100.00
2023-03-31T17:06:29.857Z,100.00
2023-03-31T17:08:57.592Z,100.00
2023-03-31T17:11:25.101Z,100.00
2023-03-31T17:13:54.727Z,100.00
2023-03-31T17:16:29.808Z,100.00
2023-03-31T17:19:09.932Z,100.00
2023-03-31T17:21:37.959Z,100.00
2023-03-31T17:26:37.692Z,100.00
2023-03-31T17:29:05.920Z,100.00
2023-03-31T17:31:35.773Z,100.00
2023-03-31T17:34:04.390Z,100.00
2023-03-31T17:36:31.999Z,100.00
2023-03-31T17:39:00.449Z,100.00
2023-03-31T17:41:29.803Z,100.00
2023-03-31T17:43:58.124Z,100.00
2023-03-31T17:46:37.276Z,100.00
2023-03-31T17:49:05.124Z,100.00
2023-03-31T17:51:38.118Z,100.00
2023-03-31T17:54:05.719Z,100.00
2023-03-31T17:56:33.278Z,100.00
2023-03-31T17:59:00.860Z,100.00
2023-03-31T18:01:54.145Z,100.00
2023-03-31T18:04:32.747Z,100.00
2023-03-31T18:07:08.135Z,100.00
2023-03-31T18:09:41.341Z,100.00
2023-03-31T18:17:31.556Z,100.00
2023-03-31T18:24:14.966Z,100.00
2023-03-31T19:20:44.652Z,100.00
2023-03-31T19:29:25.300Z,100.00
2023-03-31T19:31:56.283Z,100.00
2023-03-31T19:35:56.202Z,100.00
2023-03-31T20:58:01.841Z,100.00
2023-03-31T21:09:37.933Z,100.00
2023-03-31T21:13:46.952Z,100.00
2023-03-31T21:30:06.848Z,100.00
2023-03-31T21:37:19.902Z,100.00
2023-03-31T21:45:18.596Z,100.00
2023-03-31T21:49:12.852Z,100.00
2023-03-31T21:52:48.661Z,100.00
2023-03-31T22:07:39.024Z,100.00
2023-03-31T22:17:59.834Z,100.00
2023-03-31T22:21:19.515Z,100.00
2023-03-31T22:25:11.810Z,100.00
2023-03-31T22:34:14.228Z,100.00
2023-03-31T22:40:56.502Z,100.00
2023-03-31T22:43:53.946Z,100.00
2023-03-31T22:46:24.346Z,100.00
2023-03-31T23:01:59.999Z,100.00
2023-03-31T23:04:42.000Z,100.00
2023-03-31T23:07:23.394Z,100.00
2023-03-31T23:12:41.544Z,100.00
2023-03-31T23:14:53.040Z,100.00
2023-03-31T23:17:56.973Z,100.00
2023-03-31T23:21:35.852Z,100.00
2023-03-31T23:25:13.060Z,100.00
2023-03-31T23:27:52.395Z,100.00
2023-03-31T23:30:30.042Z,100.00
2023-03-31T23:33:57.348Z,100.00
2023-03-31T23:36:29.838Z,100.00
2023-03-31T23:39:12.109Z,100.00
2023-03-31T23:42:02.684Z,100.00
2023-03-31T23:44:45.222Z,100.00
2023-03-31T23:48:13.118Z,100.00
2023-03-31T23:51:07.640Z,100.00
2023-03-31T23:58:01.724Z,100.00
